createdAt,value
2018-04-11T18:53:07.059Z,956.02
2018-04-11T18:54:06.946Z,956.02
2018-04-11T18:55:06.909Z,956.00
2018-04-11T18:56:06.910Z,956.00
2018-04-11T18:57:06.815Z,956.02
2018-04-11T18:58:06.805Z,956.03
2018-04-11T18:59:06.731Z,956.03
2018-04-11T19:00:06.687Z,956.07
2018-04-11T19:01:06.673Z,956.01
2018-04-11T19:02:06.603Z,956.07
2018-04-11T19:03:06.555Z,956.10
2018-04-11T19:04:06.548Z,956.08
2018-04-11T19:05:06.537Z,956.06
2018-04-11T19:06:06.453Z,956.07
2018-04-11T19:07:06.438Z,956.07
2018-04-11T19:08:06.351Z,956.05
2018-04-11T19:09:06.344Z,956.03
2018-04-11T19:10:06.277Z,956.02
2018-04-11T19:11:06.233Z,956.03
2018-04-11T19:12:06.197Z,955.99
2018-04-11T19:13:06.211Z,955.97
2018-04-11T19:14:06.152Z,956.00
2018-04-11T19:15:06.083Z,956.01
2018-04-11T19:16:06.041Z,955.98
2018-04-11T19:17:05.998Z,955.97
2018-04-11T19:18:05.997Z,955.95
2018-04-11T19:19:05.917Z,955.96
2018-04-11T19:20:05.883Z,955.95
2018-04-11T19:21:05.848Z,955.99
2018-04-11T19:22:05.858Z,955.93
2018-04-11T19:23:05.776Z,955.93
2018-04-11T19:24:05.753Z,955.98
2018-04-11T19:25:05.689Z,956.00
2018-04-11T19:26:05.653Z,955.95
2018-04-11T19:27:05.647Z,955.95
2018-04-11T19:28:05.620Z,955.98
2018-04-11T19:29:05.546Z,955.95
2018-04-11T19:30:05.512Z,955.93
2018-04-11T19:31:05.478Z,955.97
2018-04-11T19:32:05.433Z,955.93
2018-04-11T19:33:05.479Z,955.96
2018-04-11T19:34:05.359Z,955.95
2018-04-11T19:35:05.316Z,955.91
2018-04-11T19:36:05.428Z,955.90
2018-04-11T19:37:05.296Z,955.89
2018-04-11T19:38:05.270Z,955.89
2018-04-11T19:39:05.339Z,955.92
2018-04-11T19:40:05.140Z,955.86
2018-04-11T19:41:05.093Z,955.80
2018-04-11T19:42:05.087Z,955.81
2018-04-11T19:43:05.022Z,955.78
2018-04-11T19:44:04.990Z,955.78
2018-04-11T19:45:04.948Z,955.75
2018-04-11T19:46:04.904Z,955.76
2018-04-11T19:47:04.903Z,955.74
2018-04-11T19:48:04.835Z,955.75
2018-04-11T19:49:04.809Z,955.79
2018-04-11T19:50:04.762Z,955.77
2018-04-11T19:51:04.767Z,955.73
2018-04-11T19:52:04.682Z,955.77
2018-04-11T19:53:04.648Z,955.74
2018-04-11T19:54:04.632Z,955.76
2018-04-11T19:55:04.576Z,955.70
2018-04-11T19:56:04.579Z,955.73
2018-04-11T19:57:04.494Z,955.69
2018-04-11T19:58:04.453Z,955.71
2018-04-11T19:59:04.415Z,955.71
2018-04-11T20:00:04.383Z,955.70
2018-04-11T20:01:04.439Z,955.68
2018-04-11T20:02:04.331Z,955.66
2018-04-11T20:03:04.264Z,955.66
2018-04-11T20:04:04.233Z,955.63
2018-04-11T20:05:04.195Z,955.59
2018-04-11T20:06:04.195Z,955.66
2018-04-11T20:07:04.117Z,955.67
2018-04-11T20:08:04.079Z,955.63
2018-04-11T20:09:04.047Z,955.63
2018-04-11T20:10:03.997Z,955.63
2018-04-11T20:11:04.026Z,955.65
2018-04-11T20:12:03.921Z,955.61
2018-04-11T20:13:03.884Z,955.66
2018-04-11T20:14:03.843Z,955.62
2018-04-11T20:15:03.813Z,955.55
2018-04-11T20:16:03.801Z,955.62
2018-04-11T20:17:03.789Z,955.62
2018-04-11T20:18:03.728Z,955.60
2018-04-11T20:19:03.739Z,955.59
2018-04-11T20:20:03.628Z,955.56
2018-04-11T20:21:03.622Z,955.54
2018-04-11T20:22:03.552Z,955.56
2018-04-11T20:23:03.568Z,955.52
2018-04-11T20:24:03.510Z,955.58
2018-04-11T20:25:03.436Z,955.53
2018-04-11T20:26:03.399Z,955.51
2018-04-11T20:27:03.360Z,955.52
2018-04-11T20:28:03.315Z,955.58
2018-04-11T20:29:03.311Z,955.54
2018-04-11T20:30:03.248Z,955.54
2018-04-11T20:31:03.206Z,955.55
2018-04-11T20:32:03.161Z,955.55
2018-04-11T20:33:03.164Z,955.57
2018-04-11T20:34:03.089Z,955.54
2018-04-11T20:35:03.074Z,955.53
2018-04-11T20:36:03.010Z,955.50
2018-04-11T20:37:02.969Z,955.48
2018-04-11T20:38:02.968Z,955.46
2018-04-11T20:39:02.899Z,955.46
2018-04-11T20:40:02.890Z,955.48
2018-04-11T20:41:02.820Z,955.47
2018-04-11T20:42:02.923Z,955.45
2018-04-11T20:43:02.746Z,955.43
2018-04-11T20:44:02.703Z,955.44
2018-04-11T20:45:02.666Z,955.43
2018-04-11T20:46:02.627Z,955.45
2018-04-11T20:47:02.640Z,955.39
2018-04-11T20:48:02.570Z,955.35
2018-04-11T20:49:02.516Z,955.38
2018-04-11T20:50:02.477Z,955.37
2018-04-11T20:51:02.442Z,955.37
2018-04-11T20:52:02.437Z,955.34
2018-04-11T20:53:02.368Z,955.34
2018-04-11T20:54:02.324Z,955.33
2018-04-11T20:55:02.286Z,955.31
2018-04-11T20:56:02.282Z,955.28
2018-04-11T20:57:02.214Z,955.25
2018-04-11T20:58:02.197Z,955.25
2018-04-11T20:59:02.134Z,955.22
2018-04-11T21:00:02.090Z,955.20
2018-04-11T21:01:02.095Z,955.15
2018-04-11T21:02:02.015Z,955.16
2018-04-11T21:03:01.974Z,955.13
2018-04-11T21:04:01.956Z,955.10
2018-04-11T21:05:01.899Z,955.12
2018-04-11T21:06:01.949Z,955.11
2018-04-11T21:07:01.817Z,955.10
2018-04-11T21:08:01.816Z,955.07
2018-04-11T21:09:01.734Z,955.08
2018-04-11T21:10:01.719Z,955.08
2018-04-11T21:11:01.669Z,955.08
2018-04-11T21:12:01.689Z,955.11
2018-04-11T21:13:01.577Z,955.03
2018-04-11T21:14:01.587Z,955.05
2018-04-11T21:15:01.499Z,955.06
2018-04-11T21:16:01.463Z,955.06
2018-04-11T21:17:01.426Z,955.06
2018-04-11T21:18:01.380Z,955.05
2018-04-11T21:19:01.381Z,955.05
2018-04-11T21:20:01.385Z,955.08
2018-04-11T21:21:01.260Z,955.07
2018-04-11T21:22:01.256Z,955.06
2018-04-11T21:23:01.190Z,955.09
2018-04-11T21:24:01.183Z,955.03
2018-04-11T21:25:01.140Z,955.08
2018-04-11T21:26:01.065Z,955.05
2018-04-11T21:27:01.059Z,955.06
2018-04-11T21:28:00.991Z,955.04
2018-04-11T21:29:00.989Z,955.01
2018-04-11T21:30:00.907Z,955.02
2018-04-11T21:31:00.875Z,955.01
2018-04-11T21:32:00.826Z,955.02
2018-04-11T21:33:00.789Z,954.97
2018-04-11T21:34:00.785Z,954.94
2018-04-11T21:35:00.718Z,954.93
2018-04-11T21:36:00.670Z,954.96
2018-04-11T21:37:00.634Z,954.96
2018-04-11T21:38:00.592Z,954.93
2018-04-11T21:39:00.641Z,954.91
2018-04-11T21:40:00.517Z,954.88
2018-04-11T21:41:00.474Z,954.89
2018-04-11T21:42:00.473Z,954.87
2018-04-11T21:43:00.433Z,954.90
2018-04-11T21:44:00.361Z,954.85
2018-04-11T21:45:00.323Z,954.83
2018-04-11T21:46:00.290Z,954.81
2018-04-11T21:47:00.249Z,954.80
2018-04-11T21:48:00.243Z,954.80
2018-04-11T21:49:00.172Z,954.77
2018-04-11T21:50:00.171Z,954.80
2018-04-11T21:51:00.097Z,954.78
2018-04-11T21:52:00.085Z,954.76
2018-04-11T21:53:00.023Z,954.80
2018-04-11T21:53:59.987Z,954.74
2018-04-11T21:54:59.961Z,954.79
2018-04-11T21:55:59.907Z,954.76
2018-04-11T21:56:59.904Z,954.76
2018-04-11T21:57:59.836Z,954.76
2018-04-11T21:58:59.794Z,954.75
2018-04-11T21:59:59.793Z,954.74
2018-04-11T22:00:59.723Z,954.75
2018-04-11T22:01:59.730Z,954.72
2018-04-11T22:02:59.643Z,954.70
2018-04-11T22:03:59.608Z,954.74
2018-04-11T22:04:59.566Z,954.68
2018-04-11T22:05:59.536Z,954.65
2018-04-11T22:06:59.523Z,954.65
2018-04-11T22:07:59.500Z,954.61
2018-04-11T22:08:59.420Z,954.63
2018-04-11T22:09:59.382Z,954.61
2018-04-11T22:10:59.342Z,954.61
2018-04-11T22:11:59.303Z,954.59
2018-04-11T22:12:59.299Z,954.61
2018-04-11T22:13:59.235Z,954.55
2018-04-11T22:14:59.196Z,954.53
2018-04-11T22:15:59.184Z,954.56
2018-04-11T22:16:59.116Z,954.50
2018-04-11T22:17:59.082Z,954.51
2018-04-11T22:18:59.039Z,954.51
2018-04-11T22:19:59.011Z,954.47
2018-04-11T22:20:59.001Z,954.48
2018-04-11T22:21:58.934Z,954.47
2018-04-11T22:22:58.888Z,954.44
2018-04-11T22:23:58.857Z,954.44
2018-04-11T22:24:58.820Z,954.42
2018-04-11T22:25:58.810Z,954.39
2018-04-11T22:26:58.740Z,954.36
2018-04-11T22:27:58.734Z,954.34
2018-04-11T22:28:58.722Z,954.35
2018-04-11T22:29:58.630Z,954.35
2018-04-11T22:30:58.588Z,954.33
2018-04-11T22:31:58.561Z,954.31
2018-04-11T22:32:58.548Z,954.29
2018-04-11T22:33:58.482Z,954.26
2018-04-11T22:34:58.470Z,954.26
2018-04-11T22:35:58.398Z,954.23
2018-04-11T22:36:58.361Z,954.25
2018-04-11T22:37:58.326Z,954.21
2018-04-11T22:38:58.287Z,954.23
2018-04-11T22:39:58.271Z,954.20
2018-04-11T22:40:58.270Z,954.17
2018-04-11T22:41:58.186Z,954.18
2018-04-11T22:42:58.134Z,954.15
2018-04-11T22:43:58.097Z,954.13
2018-04-11T22:44:58.060Z,954.12
2018-04-11T22:45:58.054Z,954.12
2018-04-11T22:46:57.985Z,954.08
2018-04-11T22:47:57.944Z,954.10
2018-04-11T22:48:57.911Z,954.02
2018-04-11T22:49:57.904Z,954.08
2018-04-11T22:50:57.837Z,954.04
2018-04-11T22:51:57.800Z,954.03
2018-04-11T22:52:57.757Z,954.06
2018-04-11T22:53:57.720Z,954.00
2018-04-11T22:54:57.715Z,953.99
2018-04-11T22:55:57.656Z,954.03
2018-04-11T22:56:57.604Z,953.96
2018-04-11T22:57:57.566Z,953.94
2018-04-11T22:58:57.566Z,953.92
2018-04-11T22:59:57.492Z,953.94
2018-04-11T23:00:57.459Z,953.92
2018-04-11T23:01:57.413Z,953.90
2018-04-11T23:02:57.395Z,953.87
2018-04-11T23:03:57.389Z,953.90
2018-04-11T23:04:57.295Z,953.88
2018-04-11T23:05:57.271Z,953.85
2018-04-11T23:06:57.243Z,953.85
2018-04-11T23:07:57.181Z,953.89
2018-04-11T23:08:57.190Z,953.84
2018-04-11T23:09:57.125Z,953.83
2018-04-11T23:10:57.107Z,953.86
2018-04-11T23:11:57.064Z,953.78
2018-04-11T23:12:56.990Z,953.86
2018-04-11T23:13:56.955Z,953.82
2018-04-11T23:14:56.917Z,953.83
2018-04-11T23:15:56.877Z,953.79
2018-04-11T23:16:56.872Z,953.75
2018-04-11T23:17:56.801Z,953.73
2018-04-11T23:18:56.764Z,953.74
2018-04-11T23:19:56.775Z,953.76
2018-04-11T23:20:56.689Z,953.79
2018-04-11T23:21:56.654Z,953.72
2018-04-11T23:22:56.612Z,953.74
2018-04-11T23:23:56.608Z,953.72
2018-04-11T23:24:56.536Z,953.69
2018-04-11T23:25:56.500Z,953.75
2018-04-11T23:26:56.491Z,953.74
2018-04-11T23:27:56.426Z,953.80
2018-04-11T23:28:56.418Z,953.71
2018-04-11T23:29:56.348Z,953.70
2018-04-11T23:30:56.313Z,953.73
2018-04-11T23:31:56.304Z,953.68
2018-04-11T23:32:56.232Z,953.66
2018-04-11T23:33:56.197Z,953.65
2018-04-11T23:34:56.186Z,953.71
2018-04-11T23:35:56.117Z,953.68
2018-04-11T23:36:56.083Z,953.65
2018-04-11T23:37:56.040Z,953.67
2018-04-11T23:38:56.007Z,953.66
2018-04-11T23:39:56.003Z,953.61
2018-04-11T23:40:55.924Z,953.60
2018-04-11T23:41:55.886Z,953.56
2018-04-11T23:42:55.849Z,953.55
2018-04-11T23:43:55.812Z,953.59
2018-04-11T23:44:55.817Z,953.59
2018-04-11T23:45:55.732Z,953.56
2018-04-11T23:46:55.727Z,953.56
2018-04-11T23:47:55.659Z,953.52
2018-04-11T23:48:55.618Z,953.51
2018-04-11T23:49:55.577Z,953.51
2018-04-11T23:50:55.581Z,953.51
2018-04-11T23:51:55.513Z,953.49
2018-04-11T23:52:55.469Z,953.44
2018-04-11T23:53:55.425Z,953.43
2018-04-11T23:54:55.390Z,953.38
2018-04-11T23:56:16.821Z,953.42
2018-04-11T23:56:55.311Z,953.39
2018-04-11T23:57:55.325Z,953.36
2018-04-11T23:58:55.240Z,953.35
2018-04-11T23:59:55.199Z,953.33
